Airfield :
LOGIN :

Register | Disclaimer

   EN    FR    IT 

 










Legend :    VFR   Marginal VFR   IFR   Intensive IFR   Very Intensive IFR
Visi :
Ceiling :
>= 8 km
>= 3000ft
5 to 8 km
1000 to 3000 ft
1500m to 5 km
500 to 1000 ft
800 to 1500m
200 to 500 ft
< 800m
< 200 ft
Symbols :   Thunderstorms  Fog  Heavy snow  Heavy precipitations  Wind > 20 kt
SIGMETs :     Misc.  Thunderstorms  Icing  Turbulence  Mountain Waves  Volcanic Ashes







- Airport Elevation : 424 ft
- IATA code : QGY


LHPR - Györ Per

CURRENT METAR :
  • 152215Z AUTO 21003KT 160V230 CAVOK 15/13 Q1020

EXPIRED METARs :
  • 152145Z AUTO VRB02KT CAVOK 14/12 Q1020
  • 152115Z AUTO 16005KT CAVOK 14/12 Q1021
  • 152045Z AUTO 13003KT CAVOK 15/13 Q1021
  • 152015Z AUTO 15003KT CAVOK 15/13 Q1021
  • 151945Z AUTO 15003KT CAVOK 16/13 Q1021

TAF TAF LHPR
Valid from the 15 at 18:00 until the 16 at 03:00 UTC


151715Z 1518/1603 19004KT CAVOK
TEMPO 1601/1603 5000 BR NSC
No reported NOTAMs for that airfield.



MET'MAP, your aeronautical weather chart ! - Copyright ORBIFLY December 2007 - Disclaimer

ORBIFLY MET'MAP TEAM :

Programming & Development : Alexandra Zaïnal
Concept & Development : Baudouin d'Aumeries
Co-Development & Prog : Marc-Olivier Méhu
Technical & hardware support : Manuel Goepfert

Contact : metmap@orbifly.com




SOURCES & CREDITS :

   NOAA